Skip to main content Skip to accessibility
This website is not compatible with your web browser. You should install a newer browser. If you live in Jersey and need help upgrading call the States of Jersey web team on 440099.
Homegov.je

L'înformâtion et les sèrvices publyis pouor I'Île dé Jèrri

CI Airfield TAFs

JERSEY - EGJJ

201645Z 2018/2103 17020KT 9999 SCT020 BECMG 2018/2020 17027G40KT BKN015 BECMG 2019/2021 5000 RA BKN010 BECMG 2021/2023 21020KT 9999 NSW SCT012 BECMG 2101/2103 23030G42KT=

GUERNSEY - EGJB

201645Z 2018/2103 17020KT 9999 SCT020 BECMG 2018/2020 17027G40KT BKN015 BECMG 2019/2021 5000 RA BKN010 BECMG 2021/2023 21020KT 9999 NSW SCT012 BECMG 2101/2103 23030G42KT=

ALDERNEY - EGJA

201645Z 2018/2103 Nil

Back to top
rating button